West Pittsburg, Pennsylvania
Current Conditions -  °F | °C
As of 4:55 AM on Saturday 29 Nov 2014 (Local Time) from KBTP Reporting Station
Overcast Overcast  
Wind Chill: 21°   Ceiling: 4000
Heat Index: 27°   Visibility: 10mi
Dew Point: 19°   Wind: 5mph
Humidity: 74%   Direction: 130°SE
Pressure: 30.14"   Gusts: NA
Location:  40.93°N, 80.36°W
Report Text: KBTP 290955Z AUTO 13004KT 10SM BKN040 OVC048 M03/M07 A3014 RMK AO1
Loading
Personal Weather Stations






























Interactive Weather Map New forecast layout! Learn more

10-Day Weather Forecast

Advertisements
Track Severe Weather on mobile